Time;durP1;ratioP1;P1;durP2;ratioP2;P2;SDS_P1;SDS_P2;PMS_P1;PMS_P2;Temp;Humidity;BMP_temperature;BMP_pressure;BME280_temperature;BME280_humidity;BME280_pressure;Samples;Min_cycle;Max_cycle;Signal;HPM_P1;HPM_P2
2021/06/28 00:00:05;;;;;;;6.22;5.28;;;22.60;99.90;;;;;;5032729;28;20040;-63
2021/06/28 00:02:32;;;;;;;5.45;4.95;;;22.60;99.90;;;;;;5034018;28;20120;-63
2021/06/28 00:04:58;;;;;;;6.03;5.53;;;22.60;99.90;;;;;;5032366;28;20035;-63
2021/06/28 00:07:23;;;;;;;6.15;5.65;;;22.60;99.90;;;;;;5033191;28;20370;-63
2021/06/28 00:09:49;;;;;;;7.03;5.32;;;22.60;99.90;;;;;;5032654;28;20485;-62
2021/06/28 00:12:15;;;;;;;6.07;5.47;;;22.60;99.90;;;;;;5051455;28;20389;-63
2021/06/28 00:14:41;;;;;;;5.47;4.95;;;22.60;99.90;;;;;;5034732;28;20056;-63
2021/06/28 00:17:06;;;;;;;7.30;6.60;;;22.60;99.90;;;;;;5051305;28;20543;-63
2021/06/28 00:19:32;;;;;;;7.50;6.00;;;22.50;99.90;;;;;;5051836;28;20064;-64
2021/06/28 00:21:58;;;;;;;6.00;5.50;;;22.50;99.90;;;;;;5059847;28;20115;-62
2021/06/28 00:24:24;;;;;;;8.23;5.85;;;22.50;99.90;;;;;;5072217;28;20036;-64
2021/06/28 00:26:49;;;;;;;9.18;5.60;;;22.50;99.90;;;;;;5069824;28;20021;-63
2021/06/28 00:29:15;;;;;;;6.18;5.22;;;22.50;99.90;;;;;;5069882;28;20033;-62
2021/06/28 00:31:41;;;;;;;7.20;5.95;;;22.50;99.90;;;;;;5071060;28;20104;-63
2021/06/28 00:34:07;;;;;;;7.38;6.43;;;22.50;99.90;;;;;;5068871;28;20024;-64
2021/06/28 00:36:33;;;;;;;6.38;5.68;;;22.40;99.90;;;;;;5069550;28;20066;-63
2021/06/28 00:38:58;;;;;;;6.32;5.75;;;22.40;99.90;;;;;;5068831;28;20024;-64
2021/06/28 00:41:24;;;;;;;6.90;6.20;;;22.40;99.90;;;;;;5070278;28;20465;-64
2021/06/28 00:43:50;;;;;;;6.03;5.50;;;22.40;99.90;;;;;;5068710;28;20035;-64
2021/06/28 00:46:16;;;;;;;6.40;5.80;;;22.30;99.90;;;;;;5069328;28;20455;-63
2021/06/28 00:48:42;;;;;;;5.97;5.35;;;22.30;99.90;;;;;;5071089;28;20033;-64
2021/06/28 00:51:08;;;;;;;6.72;6.05;;;22.30;99.90;;;;;;5069085;28;20323;-63
2021/06/28 00:53:34;;;;;;;6.35;5.80;;;22.30;99.90;;;;;;5069883;28;20028;-63
2021/06/28 00:56:09;;;;;;;6.38;5.78;;;22.30;99.90;;;;;;5068938;28;20059;-63
2021/06/28 00:58:40;;;;;;;7.95;5.60;;;22.20;99.90;;;;;;5070799;28;20033;-64
2021/06/28 01:01:06;;;;;;;6.70;6.10;;;22.20;99.90;;;;;;5085107;28;20043;-63
2021/06/28 01:03:32;;;;;;;6.40;5.80;;;22.10;99.90;;;;;;5070622;28;20024;-64
2021/06/28 01:05:58;;;;;;;6.13;5.63;;;22.20;99.90;;;;;;5069957;28;20040;-63
2021/06/28 01:08:24;;;;;;;6.47;5.88;;;22.20;99.90;;;;;;5072965;28;20031;-64
2021/06/28 01:10:50;;;;;;;7.00;6.15;;;22.10;99.90;;;;;;5073420;28;20029;-64
2021/06/28 01:13:15;;;;;;;7.05;5.63;;;22.10;99.90;;;;;;5072839;28;20119;-64
2021/06/28 01:15:41;;;;;;;6.60;5.78;;;22.10;99.90;;;;;;5074162;28;20103;-64
2021/06/28 01:18:08;;;;;;;7.32;6.25;;;22.10;99.90;;;;;;5071956;28;20024;-63
2021/06/28 01:20:34;;;;;;;6.80;6.00;;;22.10;99.90;;;;;;5070049;28;20104;-63
2021/06/28 01:23:27;;;;;;;9.45;5.78;;;22.10;99.90;;;;;;5053700;28;20033;-63
2021/06/28 01:26:00;;;;;;;9.77;6.28;;;22.10;99.90;;;;;;5033906;28;20065;-65
2021/06/28 01:28:27;;;;;;;6.50;5.90;;;22.00;99.90;;;;;;5036184;28;20035;-64
2021/06/28 01:30:54;;;;;;;6.18;5.43;;;22.00;99.90;;;;;;5035539;28;20351;-64
2021/06/28 01:33:20;;;;;;;8.27;6.47;;;22.00;99.90;;;;;;5053954;28;20017;-63
2021/06/28 01:35:46;;;;;;;6.88;6.20;;;21.90;99.90;;;;;;5035628;28;20025;-64
2021/06/28 01:38:12;;;;;;;7.55;6.25;;;21.90;99.90;;;;;;5035091;28;20063;-64
2021/06/28 01:40:38;;;;;;;7.68;5.72;;;21.80;99.90;;;;;;5035488;28;20056;-64
2021/06/28 01:43:05;;;;;;;6.97;6.32;;;21.80;99.90;;;;;;5035019;28;20029;-63
2021/06/28 01:45:31;;;;;;;7.50;6.10;;;21.70;99.90;;;;;;5035637;28;20025;-64
2021/06/28 01:47:58;;;;;;;7.78;5.90;;;21.70;99.90;;;;;;5052909;28;20024;-64
2021/06/28 01:50:26;;;;;;;6.47;5.88;;;21.80;99.90;;;;;;5035298;28;20040;-63
2021/06/28 01:52:52;;;;;;;7.95;5.88;;;21.70;99.90;;;;;;5035060;28;20028;-63
2021/06/28 01:55:20;;;;;;;6.47;5.88;;;21.80;99.90;;;;;;5035474;28;20393;-64
2021/06/28 01:57:58;;;;;;;6.22;5.63;;;21.80;99.90;;;;;;5053357;28;20035;-63
2021/06/28 02:00:36;;;;;;;6.55;5.95;;;21.80;99.90;;;;;;5053066;28;20036;-63
2021/06/28 02:03:14;;;;;;;6.57;5.80;;;21.80;99.90;;;;;;5034729;28;20048;-63
2021/06/28 02:05:44;;;;;;;6.22;5.63;;;21.90;99.90;;;;;;5034742;28;20036;-63
2021/06/28 02:08:11;;;;;;;9.13;7.00;;;21.90;99.90;;;;;;5034451;28;20116;-64
2021/06/28 02:10:40;;;;;;;6.85;6.18;;;21.80;99.90;;;;;;5052779;28;20052;-63
2021/06/28 02:13:06;;;;;;;6.28;5.78;;;21.70;99.90;;;;;;5034720;28;20365;-63
2021/06/28 02:15:33;;;;;;;6.90;6.25;;;21.70;99.90;;;;;;5053083;28;20222;-63
2021/06/28 02:18:00;;;;;;;6.68;6.07;;;21.70;99.90;;;;;;5033902;28;20025;-63
2021/06/28 02:20:26;;;;;;;6.97;5.35;;;21.70;99.90;;;;;;5052157;28;20036;-64
2021/06/28 02:22:53;;;;;;;5.82;5.32;;;21.80;99.90;;;;;;5051910;28;20047;-71
2021/06/28 02:25:20;;;;;;;7.60;6.78;;;21.90;99.90;;;;;;5034889;28;20025;-63
2021/06/28 02:27:46;;;;;;;9.00;7.88;;;21.80;99.90;;;;;;5052638;28;20033;-63
2021/06/28 02:30:15;;;;;;;9.40;6.80;;;21.70;99.90;;;;;;5034244;28;20252;-63
2021/06/28 02:32:42;;;;;;;8.57;7.22;;;21.70;99.90;;;;;;5034790;28;20031;-65
2021/06/28 02:35:11;;;;;;;8.10;7.30;;;21.60;99.90;;;;;;5034451;28;20086;-63
2021/06/28 02:37:38;;;;;;;8.90;8.05;;;21.60;99.90;;;;;;5052427;28;20025;-63
2021/06/28 02:40:07;;;;;;;9.55;8.13;;;21.60;99.90;;;;;;5051740;28;20021;-64
2021/06/28 02:42:32;;;;;;;8.95;8.15;;;21.50;99.90;;;;;;5052027;28;20030;-63
2021/06/28 02:44:58;;;;;;;8.50;7.70;;;21.40;99.90;;;;;;5033697;28;20128;-63
2021/06/28 02:47:24;;;;;;;8.43;7.55;;;21.40;99.90;;;;;;5034529;28;20161;-63
2021/06/28 02:49:49;;;;;;;7.82;7.07;;;21.40;99.90;;;;;;5052048;28;20470;-63
2021/06/28 02:52:15;;;;;;;11.60;6.93;;;21.40;99.90;;;;;;5051926;28;20052;-62
2021/06/28 02:54:41;;;;;;;9.48;7.93;;;21.30;99.90;;;;;;5034231;28;20029;-63
2021/06/28 02:57:06;;;;;;;8.40;7.70;;;21.30;99.90;;;;;;5033766;28;20021;-64
2021/06/28 02:59:32;;;;;;;8.48;6.60;;;21.30;99.90;;;;;;5034095;28;20073;-64
2021/06/28 03:01:58;;;;;;;8.65;7.85;;;21.40;99.90;;;;;;5051198;28;20456;-64
2021/06/28 03:04:24;;;;;;;8.07;7.32;;;21.30;99.90;;;;;;5051963;28;20050;-63
2021/06/28 03:06:49;;;;;;;8.23;7.53;;;21.40;99.90;;;;;;5034584;28;20025;-64
2021/06/28 03:09:15;;;;;;;9.35;7.30;;;21.40;99.90;;;;;;5051474;28;20041;-64
2021/06/28 03:11:41;;;;;;;8.05;6.75;;;21.30;99.90;;;;;;5034251;28;20090;-63
2021/06/28 03:14:06;;;;;;;8.57;7.13;;;21.20;99.90;;;;;;5033596;28;20426;-63
2021/06/28 03:16:32;;;;;;;8.48;7.78;;;21.20;99.90;;;;;;5034185;28;20425;-63
2021/06/28 03:18:58;;;;;;;9.85;8.07;;;21.10;99.90;;;;;;5051381;28;20025;-63
2021/06/28 03:21:24;;;;;;;8.55;7.70;;;21.20;99.90;;;;;;5051002;28;20048;-63
2021/06/28 03:23:50;;;;;;;9.05;7.90;;;21.10;99.90;;;;;;5071260;28;20029;-63
2021/06/28 03:26:15;;;;;;;11.50;8.20;;;21.10;99.90;;;;;;5069716;28;20304;-63
2021/06/28 03:28:41;;;;;;;12.02;7.75;;;21.10;99.90;;;;;;5070211;28;20418;-62
2021/06/28 03:31:08;;;;;;;11.90;7.85;;;21.10;99.90;;;;;;5068901;28;20036;-62
2021/06/28 03:33:34;;;;;;;8.45;7.22;;;21.20;99.90;;;;;;5071156;28;20028;-63
2021/06/28 03:36:00;;;;;;;10.70;8.13;;;21.10;99.90;;;;;;5069551;28;20139;-64
2021/06/28 03:38:27;;;;;;;9.57;7.55;;;21.00;99.90;;;;;;5070102;28;20055;-63
2021/06/28 03:40:52;;;;;;;8.73;7.82;;;21.00;99.90;;;;;;5071236;28;20083;-63
2021/06/28 03:43:18;;;;;;;11.48;8.07;;;21.10;99.90;;;;;;5069114;28;20438;-63
2021/06/28 03:45:45;;;;;;;9.07;7.50;;;21.00;99.90;;;;;;5069889;28;20020;-62
2021/06/28 03:48:12;;;;;;;9.77;8.18;;;21.00;99.90;;;;;;5070622;28;20029;-63
2021/06/28 03:50:40;;;;;;;10.50;8.40;;;21.00;99.90;;;;;;5069853;28;20032;-62
2021/06/28 03:53:06;;;;;;;8.68;7.80;;;21.00;99.90;;;;;;5069378;28;20534;-63
2021/06/28 03:55:32;;;;;;;8.23;6.95;;;20.90;99.90;;;;;;5070125;28;20139;-66
2021/06/28 03:57:59;;;;;;;9.55;7.60;;;21.00;99.90;;;;;;5071038;28;20064;-71
2021/06/28 04:00:25;;;;;;;10.10;8.07;;;21.10;99.90;;;;;;5070458;28;20102;-64
2021/06/28 04:02:52;;;;;;;9.45;7.15;;;21.10;99.90;;;;;;5071711;28;20028;-64
2021/06/28 04:05:21;;;;;;;8.43;7.60;;;21.20;99.90;;;;;;5072743;28;20225;-64
2021/06/28 04:07:46;;;;;;;8.07;7.32;;;21.20;99.90;;;;;;5070107;28;20384;-63
2021/06/28 04:10:14;;;;;;;7.65;6.95;;;21.30;99.90;;;;;;5070691;28;20108;-63
2021/06/28 04:12:40;;;;;;;11.20;7.88;;;21.30;99.90;;;;;;5069889;28;20071;-63
2021/06/28 04:15:11;;;;;;;12.10;7.18;;;21.30;99.90;;;;;;5069335;28;20054;-63
2021/06/28 04:17:42;;;;;;;10.32;7.95;;;21.40;99.90;;;;;;5069870;28;20024;-63
2021/06/28 04:20:09;;;;;;;14.25;6.75;;;21.40;99.90;;;;;;5070065;28;20063;-64
2021/06/28 04:22:36;;;;;;;8.82;7.43;;;21.40;99.90;;;;;;5050410;28;20406;-64
2021/06/28 04:25:04;;;;;;;7.63;6.72;;;21.40;99.90;;;;;;5032073;28;20352;-63
2021/06/28 04:27:30;;;;;;;10.25;8.18;;;21.50;99.90;;;;;;5033641;28;20090;-63
2021/06/28 04:29:55;;;;;;;10.75;7.63;;;21.30;99.90;;;;;;5050975;28;20033;-64
2021/06/28 04:32:21;;;;;;;12.88;8.95;;;21.30;99.90;;;;;;5032340;28;20029;-63
2021/06/28 04:34:47;;;;;;;10.77;8.43;;;21.20;99.90;;;;;;5050753;28;20021;-63
2021/06/28 04:37:13;;;;;;;9.13;8.13;;;21.20;99.90;;;;;;5032062;28;20033;-63
2021/06/28 04:39:39;;;;;;;10.05;8.13;;;21.20;99.90;;;;;;5050662;28;20450;-63
2021/06/28 04:42:06;;;;;;;10.38;8.48;;;21.20;99.90;;;;;;5049899;28;20091;-63
2021/06/28 04:44:32;;;;;;;10.93;9.23;;;21.20;99.90;;;;;;5054259;28;20028;-64
2021/06/28 04:46:58;;;;;;;12.95;8.75;;;21.20;99.90;;;;;;5036630;28;20025;-63
2021/06/28 04:49:24;;;;;;;15.52;9.48;;;21.20;99.90;;;;;;5035765;28;20032;-63
2021/06/28 04:51:50;;;;;;;10.63;8.82;;;21.40;99.90;;;;;;5055721;28;20383;-64
2021/06/28 04:54:16;;;;;;;12.50;8.35;;;21.40;99.90;;;;;;5036717;28;20067;-65
2021/06/28 04:56:41;;;;;;;19.13;8.82;;;21.40;99.90;;;;;;5055405;28;20025;-64
2021/06/28 04:59:07;;;;;;;10.55;8.52;;;21.40;99.90;;;;;;5036403;28;20021;-65
2021/06/28 05:01:33;;;;;;;10.45;7.90;;;21.50;99.90;;;;;;5037320;28;20061;-63
2021/06/28 05:03:58;;;;;;;12.25;8.32;;;21.60;99.90;;;;;;5055196;28;20363;-63
2021/06/28 05:06:24;;;;;;;15.10;9.02;;;21.80;99.90;;;;;;5036605;28;20063;-64
2021/06/28 05:08:50;;;;;;;9.63;7.85;;;22.00;99.90;;;;;;5056802;28;20033;-64
2021/06/28 05:11:15;;;;;;;8.90;7.78;;;22.00;99.90;;;;;;5054370;28;20040;-63
2021/06/28 05:13:41;;;;;;;13.50;8.95;;;22.10;99.90;;;;;;5074776;28;20398;-66
2021/06/28 05:16:07;;;;;;;10.07;6.55;;;22.20;99.90;;;;;;5056413;28;20107;-52
2021/06/28 05:18:32;;;;;;;6.88;5.10;;;22.50;99.90;;;;;;5056756;28;20474;-52
2021/06/28 05:20:58;;;;;;;12.52;5.50;;;23.00;99.90;;;;;;5073871;28;20061;-52
2021/06/28 05:23:24;;;;;;;7.03;4.78;;;23.30;99.90;;;;;;5054862;28;20021;-53
2021/06/28 05:25:50;;;;;;;7.60;5.53;;;23.40;99.90;;;;;;5055873;28;20150;-52
2021/06/28 05:28:16;;;;;;;6.43;5.45;;;23.50;99.90;;;;;;5054541;28;20029;-55
2021/06/28 05:30:41;;;;;;;7.72;5.57;;;23.60;99.90;;;;;;5055122;28;20029;-54
2021/06/28 05:33:07;;;;;;;8.60;5.55;;;23.70;99.90;;;;;;5054069;28;20093;-53
2021/06/28 05:35:33;;;;;;;8.15;6.40;;;23.90;99.90;;;;;;5037689;28;20413;-53
2021/06/28 05:37:58;;;;;;;9.45;6.18;;;23.90;99.90;;;;;;5053731;28;20119;-53
2021/06/28 05:40:24;;;;;;;9.65;5.75;;;24.10;99.90;;;;;;5053369;28;20024;-53
2021/06/28 05:42:50;;;;;;;9.27;6.30;;;24.10;99.90;;;;;;5053580;28;20036;-53
2021/06/28 05:45:16;;;;;;;11.43;6.50;;;24.10;99.90;;;;;;5053048;28;20435;-56
2021/06/28 05:47:42;;;;;;;7.32;5.72;;;24.30;99.90;;;;;;5053563;28;20033;-56
2021/06/28 05:50:11;;;;;;;8.98;5.90;;;24.40;99.90;;;;;;5052665;28;20063;-54
2021/06/28 05:52:37;;;;;;;6.97;6.25;;;24.50;99.90;;;;;;5071160;28;20119;-53
2021/06/28 05:55:05;;;;;;;9.82;5.78;;;24.50;99.90;;;;;;5070574;28;20107;-66
2021/06/28 05:57:31;;;;;;;13.00;6.05;;;24.70;99.90;;;;;;5036584;28;20051;-51
2021/06/28 05:59:56;;;;;;;8.23;5.68;;;24.80;99.90;;;;;;5038030;28;20029;-53
2021/06/28 06:02:23;;;;;;;6.80;5.78;;;24.80;99.90;;;;;;5032225;28;20164;-53
2021/06/28 06:04:48;;;;;;;8.68;6.82;;;24.80;99.90;;;;;;5033185;28;20052;-54
2021/06/28 06:07:14;;;;;;;6.28;5.60;;;24.70;99.90;;;;;;5032641;28;20443;-53
2021/06/28 06:09:40;;;;;;;8.75;5.82;;;24.60;99.90;;;;;;5033109;28;20065;-53
2021/06/28 06:12:06;;;;;;;11.93;6.97;;;24.60;99.90;;;;;;5032818;28;20435;-52
2021/06/28 06:14:32;;;;;;;7.15;5.65;;;24.60;99.90;;;;;;5033425;28;20021;-52
2021/06/28 06:16:58;;;;;;;6.70;5.85;;;24.50;99.90;;;;;;5033066;28;20074;-52
2021/06/28 06:19:24;;;;;;;15.75;6.65;;;24.50;99.90;;;;;;5032641;28;20043;-57
2021/06/28 06:21:50;;;;;;;8.25;6.78;;;24.50;99.90;;;;;;5057195;28;20155;-53
2021/06/28 06:24:15;;;;;;;7.15;6.00;;;24.60;99.90;;;;;;5069233;28;20116;-53
2021/06/28 06:26:42;;;;;;;7.03;6.22;;;24.50;99.90;;;;;;5071144;28;20017;-52
2021/06/28 06:29:07;;;;;;;9.15;6.63;;;24.60;99.90;;;;;;5068691;28;20366;-51
2021/06/28 06:31:33;;;;;;;9.32;6.10;;;24.60;99.90;;;;;;5084473;28;20024;-53
2021/06/28 06:33:59;;;;;;;6.93;5.15;;;24.70;99.90;;;;;;5089908;28;20031;-51
2021/06/28 06:36:24;;;;;;;10.13;6.22;;;24.60;99.90;;;;;;5088876;28;20075;-51
2021/06/28 06:38:50;;;;;;;6.70;6.05;;;24.60;99.90;;;;;;5090355;28;20024;-52
2021/06/28 06:41:16;;;;;;;8.38;5.47;;;24.80;99.90;;;;;;5088619;28;20067;-51
2021/06/28 06:43:42;;;;;;;6.20;5.60;;;24.90;99.90;;;;;;5089121;28;20095;-52
2021/06/28 06:46:08;;;;;;;9.52;5.15;;;24.80;99.90;;;;;;5088602;28;20024;-51
2021/06/28 06:48:34;;;;;;;7.78;5.60;;;24.90;99.90;;;;;;5089326;28;20055;-53
2021/06/28 06:51:00;;;;;;;11.25;9.95;;;24.90;99.90;;;;;;5090492;28;20036;-52
2021/06/28 06:53:25;;;;;;;7.78;7.03;;;24.90;99.90;;;;;;5085747;28;20055;-52
2021/06/28 06:55:51;;;;;;;11.52;6.72;;;24.90;99.90;;;;;;5068561;28;20024;-52
2021/06/28 06:58:16;;;;;;;9.75;6.53;;;24.90;99.90;;;;;;5069690;28;20158;-52
2021/06/28 07:00:43;;;;;;;11.50;6.45;;;25.00;99.90;;;;;;5068546;28;20039;-51
2021/06/28 07:03:09;;;;;;;10.98;6.70;;;24.90;99.90;;;;;;5068058;28;20051;-56
2021/06/28 07:05:36;;;;;;;10.05;7.30;;;24.90;99.90;;;;;;5083548;28;20035;-52
2021/06/28 07:08:03;;;;;;;11.23;6.85;;;24.90;99.90;;;;;;5090532;28;20020;-52
2021/06/28 07:10:28;;;;;;;10.80;5.88;;;24.90;99.90;;;;;;5088761;28;20024;-54
2021/06/28 07:12:54;;;;;;;6.13;5.28;;;24.90;99.90;;;;;;5088441;28;20028;-58
2021/06/28 07:15:21;;;;;;;8.60;6.13;;;25.00;99.90;;;;;;5089660;28;20056;-55
2021/06/28 07:17:48;;;;;;;7.70;5.70;;;24.90;99.90;;;;;;5088551;28;20035;-53
2021/06/28 07:20:18;;;;;;;5.47;4.93;;;24.60;99.90;;;;;;5087896;28;20457;-53
2021/06/28 07:22:44;;;;;;;6.38;5.40;;;24.80;99.90;;;;;;5051638;28;20040;-53
2021/06/28 07:25:13;;;;;;;8.38;6.50;;;24.90;99.90;;;;;;5067233;28;20032;-56
2021/06/28 07:27:39;;;;;;;5.45;4.95;;;24.70;99.90;;;;;;5051614;28;20025;-52
2021/06/28 07:30:08;;;;;;;6.85;5.68;;;24.70;99.90;;;;;;5034573;28;20089;-67
2021/06/28 07:32:34;;;;;;;11.25;7.32;;;24.60;99.90;;;;;;5031057;28;20037;-53
2021/06/28 07:35:00;;;;;;;5.80;5.10;;;24.60;99.90;;;;;;5031443;28;20034;-53
2021/06/28 07:37:26;;;;;;;8.27;5.90;;;24.70;99.90;;;;;;5030402;28;20029;-53
2021/06/28 07:39:52;;;;;;;6.38;5.85;;;24.80;99.90;;;;;;5029772;28;20029;-58
2021/06/28 07:42:18;;;;;;;6.80;5.38;;;24.90;99.90;;;;;;5029792;28;20043;-55
2021/06/28 07:44:44;;;;;;;6.75;5.07;;;24.90;99.90;;;;;;5030675;28;20025;-52
2021/06/28 07:47:09;;;;;;;6.57;5.78;;;24.90;99.90;;;;;;5029789;28;20086;-53
2021/06/28 07:49:35;;;;;;;6.47;5.30;;;24.90;99.90;;;;;;5048627;28;20370;-54
2021/06/28 07:52:01;;;;;;;6.82;5.35;;;24.90;99.90;;;;;;5030412;28;20785;-53
2021/06/28 07:54:28;;;;;;;5.18;4.68;;;25.00;99.90;;;;;;5036635;28;20087;-54
2021/06/28 07:56:53;;;;;;;7.55;4.85;;;25.10;99.90;;;;;;5050434;28;20064;-53
2021/06/28 07:59:19;;;;;;;6.40;5.05;;;25.30;99.90;;;;;;5040459;28;20100;-58
2021/06/28 08:01:45;;;;;;;5.20;4.70;;;25.30;99.70;;;;;;5050118;28;20484;-53
2021/06/28 08:04:10;;;;;;;5.05;4.60;;;25.50;99.70;;;;;;5031125;28;20051;-54
2021/06/28 08:06:37;;;;;;;4.80;4.40;;;25.60;99.60;;;;;;5031809;28;20028;-54
2021/06/28 08:09:03;;;;;;;6.35;4.93;;;25.90;99.10;;;;;;5031375;28;20029;-54
2021/06/28 08:11:29;;;;;;;5.30;4.85;;;26.10;98.90;;;;;;5047062;28;20461;-55
2021/06/28 08:13:55;;;;;;;6.68;4.30;;;26.10;98.70;;;;;;5051611;28;20043;-53
2021/06/28 08:16:22;;;;;;;5.05;4.50;;;26.20;98.60;;;;;;5070039;28;20482;-53
2021/06/28 08:18:49;;;;;;;7.22;5.25;;;26.30;98.50;;;;;;5048750;28;20363;-66
2021/06/28 08:21:16;;;;;;;5.13;4.32;;;26.10;98.40;;;;;;5047225;28;20071;-65
2021/06/28 08:23:43;;;;;;;4.55;4.20;;;26.30;98.40;;;;;;5069545;28;20032;-65
2021/06/28 08:26:09;;;;;;;10.63;5.00;;;26.30;98.00;;;;;;5070603;28;20488;-65
2021/06/28 08:28:35;;;;;;;4.28;3.95;;;26.70;97.70;;;;;;5069347;28;20082;-64
2021/06/28 08:31:01;;;;;;;8.88;3.70;;;26.50;97.30;;;;;;5068737;28;20095;-57
2021/06/28 08:33:27;;;;;;;6.53;4.47;;;26.70;97.80;;;;;;5069774;28;20040;-52
2021/06/28 08:35:54;;;;;;;5.65;3.92;;;26.90;97.40;;;;;;5069609;28;20021;-53
2021/06/28 08:38:20;;;;;;;5.85;3.35;;;27.00;96.80;;;;;;5070154;28;20032;-54
2021/06/28 08:40:47;;;;;;;6.95;3.70;;;27.10;96.80;;;;;;5068884;28;20029;-53
2021/06/28 08:43:13;;;;;;;3.83;3.50;;;27.10;96.60;;;;;;5068356;28;20032;-56
2021/06/28 08:45:41;;;;;;;4.15;3.85;;;27.30;96.20;;;;;;5068351;28;20025;-54
2021/06/28 08:48:08;;;;;;;4.03;3.35;;;27.30;96.00;;;;;;5069050;28;20047;-54
2021/06/28 08:50:36;;;;;;;26.35;5.45;;;27.20;95.70;;;;;;5070666;28;20047;-67
2021/06/28 08:53:02;;;;;;;5.03;3.30;;;27.10;99.90;;;;;;5067802;28;20466;-69
2021/06/28 08:55:28;;;;;;;4.60;3.17;;;27.00;96.30;;;;;;5068385;28;20480;-69
2021/06/28 08:57:54;;;;;;;4.90;3.03;;;27.10;96.90;;;;;;5072711;28;20032;-68
2021/06/28 09:00:20;;;;;;;3.35;3.05;;;27.10;95.40;;;;;;5068081;28;20032;-67
2021/06/28 09:03:04;;;;;;;4.88;3.20;;;27.00;95.40;;;;;;5069897;28;20086;-68
2021/06/28 09:05:53;;;;;;;5.95;3.45;;;27.20;95.40;;;;;;5068341;28;20439;-68
2021/06/28 09:08:22;;;;;;;6.05;3.83;;;27.10;95.40;;;;;;5069846;28;20029;-68
2021/06/28 09:10:47;;;;;;;3.65;3.33;;;27.00;95.70;;;;;;5068695;28;20032;-68
2021/06/28 09:13:14;;;;;;;3.60;3.20;;;27.20;96.00;;;;;;5068018;28;20028;-68
2021/06/28 09:15:48;;;;;;;4.32;2.90;;;27.50;95.80;;;;;;5068714;28;20025;-67
2021/06/28 09:18:24;;;;;;;2.70;2.50;;;27.60;95.50;;;;;;5068239;28;20052;-68
2021/06/28 09:20:52;;;;;;;6.53;3.42;;;28.00;94.90;;;;;;5068637;28;20113;-69
2021/06/28 09:23:24;;;;;;;2.90;2.67;;;28.10;94.40;;;;;;5051673;28;20177;-68
2021/06/28 09:25:54;;;;;;;4.28;2.88;;;28.10;94.20;;;;;;5071599;28;20423;-69
2021/06/28 09:28:34;;;;;;;3.83;3.13;;;28.40;94.00;;;;;;5090145;28;20028;-68
2021/06/28 09:31:00;;;;;;;2.77;2.57;;;28.80;94.10;;;;;;5092562;28;20465;-68
2021/06/28 09:33:26;;;;;;;4.25;3.15;;;29.00;93.70;;;;;;5091765;28;20066;-68
2021/06/28 09:35:52;;;;;;;4.47;2.85;;;29.20;92.40;;;;;;5091150;28;20032;-67
2021/06/28 09:38:38;;;;;;;4.30;2.55;;;29.20;92.00;;;;;;5090737;28;20090;-68
2021/06/28 09:41:24;;;;;;;6.78;3.03;;;29.00;92.00;;;;;;5090923;28;20460;-70
2021/06/28 09:43:52;;;;;;;3.70;2.75;;;29.00;91.80;;;;;;5090786;28;20032;-70
2021/06/28 09:46:21;;;;;;;4.18;3.08;;;29.00;92.00;;;;;;5090258;28;20042;-70
2021/06/28 09:48:50;;;;;;;3.55;3.25;;;28.50;91.70;;;;;;5091058;28;20058;-70
2021/06/28 09:51:18;;;;;;;5.55;3.13;;;28.50;92.20;;;;;;5090342;28;20051;-69
2021/06/28 09:53:44;;;;;;;3.00;2.70;;;28.10;92.70;;;;;;5090712;28;20028;-70
2021/06/28 09:56:29;;;;;;;3.67;3.00;;;27.80;93.00;;;;;;5091311;28;20024;-73
2021/06/28 09:58:54;;;;;;;3.85;2.95;;;27.70;93.30;;;;;;5074477;28;20055;-68
2021/06/28 10:01:26;;;;;;;3.97;3.50;;;27.70;93.50;;;;;;5070896;28;20458;-69
2021/06/28 10:03:54;;;;;;;4.25;3.03;;;27.50;93.90;;;;;;5069982;28;20115;-69
2021/06/28 10:08:51;;;;;;;4.95;2.92;;;27.30;94.30;;;;;;5091047;28;20032;-71
2021/06/28 10:11:23;;;;;;;3.63;3.15;;;27.30;94.60;;;;;;5089574;28;20035;-70
2021/06/28 10:14:06;;;;;;;4.18;3.00;;;27.20;94.20;;;;;;5090014;28;20127;-56
2021/06/28 10:16:35;;;;;;;4.13;3.05;;;27.10;94.00;;;;;;5089641;28;20020;-70
2021/06/28 10:19:04;;;;;;;4.55;2.70;;;27.10;93.30;;;;;;5091246;28;20461;-71
2021/06/28 10:21:30;;;;;;;6.05;2.85;;;27.10;93.20;;;;;;5088980;28;20138;-70
2021/06/28 10:23:56;;;;;;;2.92;2.67;;;27.10;92.70;;;;;;5089599;28;20032;-70
2021/06/28 10:26:23;;;;;;;3.90;2.40;;;27.20;92.70;;;;;;5089032;28;20115;-70
2021/06/28 10:28:49;;;;;;;5.00;2.67;;;27.30;92.80;;;;;;5091028;28;20040;-68
2021/06/28 10:31:15;;;;;;;2.47;2.28;;;27.60;93.00;;;;;;5089229;28;20076;-69
2021/06/28 10:33:50;;;;;;;3.47;2.60;;;27.70;93.00;;;;;;5091473;28;20047;-69
2021/06/28 10:36:18;;;;;;;3.17;2.10;;;27.90;92.50;;;;;;5088580;28;20016;-71
2021/06/28 10:38:52;;;;;;;5.30;2.90;;;28.00;91.40;;;;;;5089952;28;20028;-70
2021/06/28 10:41:43;;;;;;;5.18;2.78;;;28.10;91.40;;;;;;5088766;28;20086;-71
2021/06/28 10:44:13;;;;;;;5.00;2.50;;;28.20;90.90;;;;;;5089503;28;20024;-74
2021/06/28 10:46:42;;;;;;;2.30;2.08;;;28.30;90.20;;;;;;5089834;28;20469;-68
2021/06/28 10:49:10;;;;;;;2.35;2.15;;;28.40;90.90;;;;;;5089444;28;20028;-68
2021/06/28 10:51:50;;;;;;;10.07;2.67;;;28.40;91.00;;;;;;5090952;28;20121;-70
2021/06/28 10:54:18;;;;;;;6.38;2.88;;;28.50;91.20;;;;;;5090322;28;20457;-69
2021/06/28 10:56:54;;;;;;;5.45;2.22;;;28.40;90.20;;;;;;5090066;28;20024;-70
2021/06/28 10:59:21;;;;;;;3.60;2.03;;;28.30;90.60;;;;;;5085104;28;20102;-68
2021/06/28 11:01:48;;;;;;;2.15;2.05;;;28.20;90.70;;;;;;5080928;28;20131;-68
2021/06/28 11:04:22;;;;;;;4.43;2.47;;;28.10;91.30;;;;;;5071837;28;20091;-71
2021/06/28 11:07:01;;;;;;;2.88;2.60;;;28.10;91.70;;;;;;5094649;28;20038;-68
2021/06/28 11:09:44;;;;;;;2.65;2.45;;;27.60;91.20;;;;;;5109154;28;20038;-68
2021/06/28 11:12:22;;;;;;;5.20;2.63;;;27.40;91.50;;;;;;5109262;28;20440;-72
2021/06/28 11:15:00;;;;;;;3.05;2.80;;;27.40;91.70;;;;;;5109299;28;20019;-69
2021/06/28 11:17:49;;;;;;;2.72;2.35;;;27.50;91.60;;;;;;5067792;28;20043;-68
2021/06/28 11:20:33;;;;;;;3.97;2.88;;;27.60;91.30;;;;;;5066763;28;20024;-67
2021/06/28 11:23:16;;;;;;;4.10;2.65;;;27.90;91.30;;;;;;5031528;28;20390;-68
2021/06/28 11:25:49;;;;;;;3.35;3.05;;;28.20;91.00;;;;;;5031858;28;20025;-70
2021/06/28 11:28:34;;;;;;;4.68;2.67;;;28.20;90.60;;;;;;5030236;28;20367;-67
2021/06/28 11:31:16;;;;;;;2.72;2.53;;;28.10;91.10;;;;;;5032022;28;20063;-68
2021/06/28 11:33:50;;;;;;;5.18;2.78;;;28.20;91.10;;;;;;5049737;28;20128;-68
2021/06/28 11:36:22;;;;;;;2.35;2.15;;;28.30;91.80;;;;;;5031431;28;20033;-70
2021/06/28 11:38:56;;;;;;;3.85;2.85;;;28.40;91.20;;;;;;5051071;28;20024;-68
2021/06/28 11:41:25;;;;;;;6.00;2.90;;;28.50;91.50;;;;;;5033896;28;20124;-69
2021/06/28 11:44:01;;;;;;;3.17;2.33;;;28.60;91.10;;;;;;5040047;28;20074;-70
2021/06/28 11:46:48;;;;;;;2.90;2.45;;;28.80;90.80;;;;;;5032959;28;20036;-69
2021/06/28 11:49:25;;;;;;;3.00;2.70;;;29.00;90.10;;;;;;5052462;28;20115;-69
2021/06/28 11:51:56;;;;;;;3.00;2.70;;;29.00;90.10;;;;;;5071291;28;20353;-68
2021/06/28 11:54:24;;;;;;;2.80;2.50;;;29.00;90.60;;;;;;5043500;28;20112;-69
2021/06/28 11:56:56;;;;;;;2.65;2.33;;;29.20;89.60;;;;;;5033698;28;20108;-68
2021/06/28 11:59:25;;;;;;;2.60;2.40;;;29.60;90.10;;;;;;5032482;28;20028;-69
2021/06/28 12:02:04;;;;;;;2.80;2.50;;;29.80;87.30;;;;;;5050156;28;20116;-68
2021/06/28 12:04:37;;;;;;;4.55;2.90;;;30.10;87.90;;;;;;5032046;28;20037;-70
2021/06/28 12:07:05;;;;;;;6.00;2.50;;;30.30;88.50;;;;;;5032062;28;20079;-70
2021/06/28 12:09:40;;;;;;;2.38;2.17;;;30.70;88.40;;;;;;5030960;28;20177;-71
2021/06/28 12:12:15;;;;;;;4.72;2.88;;;31.00;86.80;;;;;;5032612;28;20095;-70
2021/06/28 12:14:54;;;;;;;4.13;2.55;;;31.20;86.10;;;;;;5032296;28;20036;-69
2021/06/28 12:17:32;;;;;;;3.45;2.15;;;31.20;85.00;;;;;;5031684;28;20091;-68
2021/06/28 12:20:01;;;;;;;2.45;2.00;;;30.60;85.30;;;;;;5032034;28;20029;-69
2021/06/28 12:22:29;;;;;;;3.92;2.30;;;30.50;86.70;;;;;;5065430;28;20049;-69
2021/06/28 12:25:07;;;;;;;6.60;2.58;;;30.70;86.20;;;;;;5075723;28;20032;-70
2021/06/28 12:27:37;;;;;;;3.67;2.60;;;31.00;85.90;;;;;;5087922;28;20199;-70
2021/06/28 12:30:14;;;;;;;4.45;2.28;;;31.20;85.60;;;;;;5086697;28;20372;-76
2021/06/28 12:32:51;;;;;;;2.17;1.98;;;31.00;85.40;;;;;;5088084;28;20119;-77
2021/06/28 12:35:22;;;;;;;3.45;2.47;;;30.60;85.20;;;;;;5086987;28;20035;-75
2021/06/28 12:37:55;;;;;;;5.63;2.70;;;30.20;85.50;;;;;;5088241;28;20138;-76
2021/06/28 12:40:30;;;;;;;3.72;2.53;;;30.20;85.50;;;;;;5087335;28;20071;-76
2021/06/28 12:43:18;;;;;;;5.00;2.47;;;30.40;87.50;;;;;;5088078;28;20185;-75
2021/06/28 12:45:50;;;;;;;3.72;2.33;;;30.40;87.00;;;;;;5088436;28;20028;-77
2021/06/28 12:48:26;;;;;;;4.05;2.20;;;30.50;86.20;;;;;;5084234;28;20054;-75
2021/06/28 12:50:56;;;;;;;2.88;2.38;;;30.90;87.10;;;;;;5088251;28;20036;-75
2021/06/28 12:53:23;;;;;;;4.13;2.03;;;31.40;86.30;;;;;;5067651;28;20107;-56